Time;durP1;ratioP1;P1;durP2;ratioP2;P2;SDS_P1;SDS_P2;PMS_P1;PMS_P2;Temp;Humidity;BMP_temperature;BMP_pressure;BME280_temperature;BME280_humidity;BME280_pressure;Samples;Min_cycle;Max_cycle;Signal;HPM_P1;HPM_P2
2021/12/17 00:09:18;;;;;;;36.83;18.57;;;;;;;;;;4936093;29;20207;-73
2021/12/17 00:12:25;;;;;;;41.10;19.30;;;;;;;;;;4934812;29;20220;-73
2021/12/17 00:15:29;;;;;;;35.73;18.23;;;;;;;;;;4948231;28;20188;-73
2021/12/17 00:18:45;;;;;;;34.40;18.00;;;;;;;;;;4939326;29;20195;-73
2021/12/17 00:49:05;;;;;;;36.00;19.07;;;;;;;;;;4937978;29;20195;-73
2021/12/17 00:52:09;;;;;;;38.53;21.13;;;;;;;;;;4948992;29;20700;-73
2021/12/17 00:55:13;;;;;;;36.00;19.07;;;;;;;;;;4927058;29;20200;-73
2021/12/17 00:58:17;;;;;;;34.83;19.17;;;;;;;;;;4937873;29;20191;-73
2021/12/17 01:01:22;;;;;;;41.27;20.30;;;;;;;;;;4937828;29;20720;-73
2021/12/17 01:04:27;;;;;;;37.43;19.60;;;;;;;;;;4937925;29;20188;-73
2021/12/17 01:07:34;;;;;;;39.10;19.40;;;;;;;;;;4937633;29;20257;-73
2021/12/17 01:10:45;;;;;;;35.03;18.77;;;;;;;;;;4926990;29;20546;-73
2021/12/17 01:14:10;;;;;;;39.37;19.17;;;;;;;;;;4943756;29;20192;-73
2021/12/17 01:17:56;;;;;;;34.70;17.13;;;;;;;;;;4938253;29;20200;-73
2021/12/17 01:24:50;;;;;;;36.67;19.27;;;;;;;;;;4937479;29;20200;-73
2021/12/17 01:35:21;;;;;;;38.30;19.00;;;;;;;;;;4943627;29;20199;-73
2021/12/17 01:42:06;;;;;;;36.57;18.37;;;;;;;;;;4936766;29;20235;-73
2021/12/17 01:45:11;;;;;;;42.13;19.50;;;;;;;;;;4936717;29;20197;-73
2021/12/17 01:48:23;;;;;;;37.20;18.57;;;;;;;;;;4926098;29;20191;-72
2021/12/17 02:01:38;;;;;;;41.00;19.50;;;;;;;;;;4925444;29;20245;-73
2021/12/17 02:04:43;;;;;;;44.53;20.00;;;;;;;;;;4936627;29;20197;-73
2021/12/17 02:07:51;;;;;;;38.50;19.03;;;;;;;;;;4937120;29;20549;-73
2021/12/17 02:21:19;;;;;;;38.00;18.10;;;;;;;;;;4936095;29;20247;-72
2021/12/17 02:37:49;;;;;;;37.10;19.10;;;;;;;;;;4946758;28;20550;-73
2021/12/17 02:48:16;;;;;;;33.20;17.70;;;;;;;;;;4935966;29;20191;-73
2021/12/17 02:51:22;;;;;;;49.10;21.63;;;;;;;;;;4924907;29;20224;-73
2021/12/17 02:54:26;;;;;;;39.73;20.40;;;;;;;;;;4935996;29;20576;-73
2021/12/17 02:57:32;;;;;;;46.23;24.03;;;;;;;;;;4924899;29;20199;-73
2021/12/17 03:00:39;;;;;;;41.07;20.80;;;;;;;;;;4913868;29;20547;-73
2021/12/17 03:03:47;;;;;;;48.10;21.80;;;;;;;;;;4935475;29;20180;-73
2021/12/17 03:06:53;;;;;;;38.93;18.90;;;;;;;;;;4924520;29;20212;-73
2021/12/17 03:13:03;;;;;;;38.30;18.97;;;;;;;;;;4946525;29;20187;-72
2021/12/17 03:16:32;;;;;;;38.63;20.57;;;;;;;;;;4914118;29;20191;-73
2021/12/17 03:26:22;;;;;;;34.40;16.77;;;;;;;;;;4935306;29;20193;-73
2021/12/17 03:29:26;;;;;;;28.80;16.57;;;;;;;;;;4935513;29;20207;-73
2021/12/17 03:32:43;;;;;;;35.07;17.90;;;;;;;;;;4935258;29;20251;-73
2021/12/17 03:35:50;;;;;;;37.90;17.83;;;;;;;;;;4935599;29;20227;-73
2021/12/17 03:38:55;;;;;;;38.13;18.00;;;;;;;;;;4935288;29;20188;-73
2021/12/17 03:42:00;;;;;;;36.30;17.90;;;;;;;;;;4935977;29;20615;-73
2021/12/17 03:45:11;;;;;;;39.70;19.97;;;;;;;;;;4936387;29;20184;-73
2021/12/17 03:48:25;;;;;;;34.00;17.00;;;;;;;;;;4935666;29;20554;-73
2021/12/17 03:51:30;;;;;;;34.53;17.33;;;;;;;;;;4939158;29;20228;-73
2021/12/17 03:54:36;;;;;;;31.53;16.20;;;;;;;;;;4939036;29;20661;-73
2021/12/17 03:57:41;;;;;;;24.90;14.47;;;;;;;;;;4927958;29;20207;-73
2021/12/17 04:00:46;;;;;;;26.23;13.70;;;;;;;;;;4938721;29;20546;-73
2021/12/17 04:03:50;;;;;;;23.67;12.80;;;;;;;;;;4938555;29;20191;-73
2021/12/17 04:07:02;;;;;;;37.33;13.67;;;;;;;;;;4927451;29;20702;-73
2021/12/17 04:10:27;;;;;;;26.77;13.03;;;;;;;;;;4939239;29;20191;-73
2021/12/17 04:13:38;;;;;;;192.13;16.43;;;;;;;;;;4938360;29;20197;-73
2021/12/17 04:16:45;;;;;;;26.60;12.90;;;;;;;;;;4938278;29;20577;-73
2021/12/17 04:19:49;;;;;;;56.80;12.67;;;;;;;;;;4938214;29;20211;-73
2021/12/17 04:22:54;;;;;;;118.80;13.20;;;;;;;;;;4927171;29;20236;-73
2021/12/17 04:25:59;;;;;;;96.17;13.60;;;;;;;;;;4938405;29;20199;-73
2021/12/17 04:29:03;;;;;;;49.03;14.40;;;;;;;;;;4938876;29;20563;-73
2021/12/17 04:32:08;;;;;;;39.03;15.27;;;;;;;;;;4927106;29;20234;-73
2021/12/17 04:35:12;;;;;;;34.83;14.53;;;;;;;;;;4949114;29;20563;-73
2021/12/17 04:38:26;;;;;;;37.63;13.00;;;;;;;;;;4938179;29;20558;-73
2021/12/17 04:44:41;;;;;;;54.90;11.73;;;;;;;;;;4927077;29;20926;-73
2021/12/17 04:58:01;;;;;;;116.00;13.20;;;;;;;;;;4925544;29;20607;-73
2021/12/17 05:01:12;;;;;;;27.13;13.20;;;;;;;;;;4932861;29;20666;-73
2021/12/17 05:04:19;;;;;;;46.00;11.47;;;;;;;;;;4917762;29;20588;-73
2021/12/17 05:07:25;;;;;;;160.53;15.33;;;;;;;;;;4937673;29;21100;-73
2021/12/17 05:10:56;;;;;;;116.73;12.60;;;;;;;;;;4937349;29;20614;-73
2021/12/17 05:21:03;;;;;;;71.47;11.40;;;;;;;;;;4924062;29;21238;-72
2021/12/17 05:24:14;;;;;;;98.37;11.43;;;;;;;;;;4926455;29;21208;-72
2021/12/17 05:27:18;;;;;;;40.37;10.97;;;;;;;;;;4937323;29;21104;-73
2021/12/17 05:30:32;;;;;;;62.93;11.00;;;;;;;;;;4937234;29;20552;-73
2021/12/17 05:33:37;;;;;;;29.80;9.93;;;;;;;;;;4936800;29;20610;-73
2021/12/17 05:36:41;;;;;;;19.27;10.77;;;;;;;;;;4937434;29;20192;-73
2021/12/17 05:39:52;;;;;;;142.73;14.97;;;;;;;;;;4936698;29;20602;-73
2021/12/17 05:43:00;;;;;;;20.93;10.93;;;;;;;;;;4936780;29;20658;-72
2021/12/17 05:46:13;;;;;;;68.70;12.60;;;;;;;;;;4936991;29;21103;-73
2021/12/17 05:49:18;;;;;;;85.87;12.97;;;;;;;;;;4936891;29;20559;-73
2021/12/17 05:52:22;;;;;;;39.40;10.73;;;;;;;;;;4937176;29;20630;-73
2021/12/17 05:55:27;;;;;;;48.70;10.70;;;;;;;;;;4936538;29;20189;-73
2021/12/17 05:58:33;;;;;;;27.53;9.23;;;;;;;;;;4925882;29;20547;-73
2021/12/17 06:01:37;;;;;;;41.07;10.20;;;;;;;;;;4936552;29;20659;-73
2021/12/17 06:04:42;;;;;;;13.17;8.77;;;;;;;;;;4936335;29;20607;-73
2021/12/17 06:07:46;;;;;;;24.07;10.53;;;;;;;;;;4936627;29;20545;-73
2021/12/17 06:10:50;;;;;;;66.17;10.20;;;;;;;;;;4925760;29;21101;-73
2021/12/17 06:13:54;;;;;;;43.83;9.50;;;;;;;;;;4925273;29;20571;-73
2021/12/17 06:17:03;;;;;;;83.93;9.30;;;;;;;;;;4936094;29;20545;-72
2021/12/17 06:20:19;;;;;;;42.67;9.83;;;;;;;;;;4936092;29;20596;-73
2021/12/17 06:23:24;;;;;;;53.30;9.17;;;;;;;;;;4936187;29;20596;-73
2021/12/17 06:26:30;;;;;;;20.27;6.70;;;;;;;;;;4935931;29;20604;-73
2021/12/17 06:29:34;;;;;;;31.90;8.63;;;;;;;;;;4925067;29;20560;-73
2021/12/17 06:32:43;;;;;;;122.43;15.70;;;;;;;;;;4935704;29;20635;-73
2021/12/17 06:35:48;;;;;;;41.83;12.30;;;;;;;;;;4924990;29;20563;-73
2021/12/17 06:38:53;;;;;;;69.23;9.97;;;;;;;;;;4924776;29;20548;-73
2021/12/17 06:42:02;;;;;;;89.10;11.70;;;;;;;;;;4935776;29;20652;-73
2021/12/17 06:45:16;;;;;;;18.17;8.20;;;;;;;;;;4935575;29;20211;-73
2021/12/17 06:48:25;;;;;;;30.40;9.50;;;;;;;;;;4935535;29;21085;-73
2021/12/17 07:23:24;;;;;;;199.87;12.90;;;;;;;;;;4924274;29;20225;-73
2021/12/17 07:33:40;;;;;;;12.57;7.97;;;;;;;;;;4936824;29;20616;-73
2021/12/17 07:40:16;;;;;;;111.07;11.50;;;;;;;;;;4923953;29;20610;-73
2021/12/17 07:43:40;;;;;;;65.57;8.43;;;;;;;;;;4934823;29;20603;-73
2021/12/17 07:46:52;;;;;;;192.13;14.40;;;;;;;;;;4934929;29;20560;-72
2021/12/17 07:49:56;;;;;;;198.67;11.30;;;;;;;;;;4930745;29;20583;-74
2021/12/17 07:53:01;;;;;;;77.47;8.20;;;;;;;;;;4931402;29;20618;-74
2021/12/17 07:56:11;;;;;;;137.07;9.33;;;;;;;;;;4920956;29;21168;-74
2021/12/17 07:59:17;;;;;;;39.67;7.73;;;;;;;;;;4920594;29;20581;-73
2021/12/17 08:02:22;;;;;;;76.77;8.03;;;;;;;;;;4931898;29;20663;-74
2021/12/17 08:05:37;;;;;;;113.30;9.23;;;;;;;;;;4921823;29;20575;-74
2021/12/17 08:08:41;;;;;;;226.15;14.50;;;;;;;;;;4930283;29;20722;-74
2021/12/17 08:11:57;;;;;;;130.43;8.47;;;;;;;;;;4931317;29;20231;-74
2021/12/17 08:15:10;;;;;;;20.77;7.00;;;;;;;;;;4921272;29;20568;-74
2021/12/17 08:18:29;;;;;;;56.03;9.07;;;;;;;;;;4920470;29;20573;-74
2021/12/17 08:28:05;;;;;;;138.20;8.33;;;;;;;;;;4929936;29;20621;-73
2021/12/17 08:31:13;;;;;;;37.60;6.53;;;;;;;;;;4916571;29;20670;-74
2021/12/17 08:34:18;;;;;;;12.27;6.70;;;;;;;;;;4915661;29;20596;-73
2021/12/17 08:37:22;;;;;;;62.90;6.67;;;;;;;;;;4937976;29;20189;-73
2021/12/17 08:40:31;;;;;;;9.57;6.70;;;;;;;;;;4937844;29;20666;-74
2021/12/17 08:43:36;;;;;;;35.77;6.17;;;;;;;;;;4937710;29;20212;-73
2021/12/17 08:46:41;;;;;;;9.83;5.77;;;;;;;;;;4937718;29;20184;-73
2021/12/17 08:50:15;;;;;;;185.03;19.37;;;;;;;;;;4938437;29;20208;-73
2021/12/17 08:53:19;;;;;;;40.17;6.20;;;;;;;;;;4937576;29;20215;-73
2021/12/17 08:56:29;;;;;;;24.87;5.13;;;;;;;;;;4937563;29;20263;-73
2021/12/17 08:59:33;;;;;;;59.47;5.90;;;;;;;;;;4934345;29;20192;-73
2021/12/17 09:02:50;;;;;;;6.67;4.80;;;;;;;;;;4934754;29;20236;-73
2021/12/17 09:06:16;;;;;;;41.50;6.13;;;;;;;;;;4933843;29;20189;-73
2021/12/17 09:09:25;;;;;;;82.10;7.70;;;;;;;;;;4934079;29;20646;-73
2021/12/17 09:12:30;;;;;;;100.17;8.97;;;;;;;;;;4936592;29;20700;-72
2021/12/17 09:15:35;;;;;;;13.70;7.87;;;;;;;;;;4936763;29;20598;-73
2021/12/17 09:18:42;;;;;;;29.50;7.27;;;;;;;;;;4938255;29;20542;-72
2021/12/17 09:22:01;;;;;;;105.07;9.37;;;;;;;;;;4937359;29;20224;-72
2021/12/17 09:25:14;;;;;;;19.13;6.73;;;;;;;;;;4937225;29;20187;-73
2021/12/17 09:28:31;;;;;;;43.20;6.83;;;;;;;;;;4926610;29;21070;-72
2021/12/17 09:31:37;;;;;;;46.43;6.97;;;;;;;;;;4936803;29;20562;-73
2021/12/17 09:34:41;;;;;;;71.53;6.90;;;;;;;;;;4937882;29;20189;-72
2021/12/17 09:37:45;;;;;;;11.57;6.70;;;;;;;;;;4937175;29;20192;-73
2021/12/17 09:40:50;;;;;;;81.73;7.77;;;;;;;;;;4937809;29;20196;-73
2021/12/17 09:43:55;;;;;;;20.33;6.07;;;;;;;;;;4937677;29;20220;-73
2021/12/17 09:46:59;;;;;;;74.50;7.70;;;;;;;;;;4935842;29;20646;-73
2021/12/17 09:50:04;;;;;;;97.83;8.00;;;;;;;;;;4942918;23;20192;-72
2021/12/17 09:53:08;;;;;;;174.67;9.30;;;;;;;;;;4918679;29;20205;-72
2021/12/17 09:56:13;;;;;;;51.60;7.57;;;;;;;;;;4918360;29;20208;-72
2021/12/17 09:59:17;;;;;;;65.00;7.73;;;;;;;;;;4918466;29;20205;-72
2021/12/17 10:02:21;;;;;;;116.43;7.57;;;;;;;;;;4918325;29;20224;-72
2021/12/17 10:05:28;;;;;;;38.57;6.57;;;;;;;;;;4918321;29;20188;-72
2021/12/17 10:08:32;;;;;;;160.43;8.57;;;;;;;;;;4918147;29;20188;-72
2021/12/17 10:11:37;;;;;;;86.90;5.80;;;;;;;;;;4917525;29;20220;-72
2021/12/17 10:14:41;;;;;;;35.17;6.13;;;;;;;;;;4917422;29;20189;-72
2021/12/17 10:18:01;;;;;;;265.20;11.67;;;;;;;;;;4917973;29;20188;-72
2021/12/17 10:21:12;;;;;;;149.37;10.93;;;;;;;;;;4917884;29;20227;-72
2021/12/17 10:24:23;;;;;;;38.60;7.50;;;;;;;;;;4918082;29;20220;-72
2021/12/17 10:27:30;;;;;;;42.70;6.97;;;;;;;;;;4918086;29;20638;-72
2021/12/17 10:30:37;;;;;;;234.07;11.73;;;;;;;;;;4916982;29;20189;-72
2021/12/17 10:33:49;;;;;;;88.40;9.27;;;;;;;;;;4917965;29;20661;-72
2021/12/17 10:36:53;;;;;;;73.27;8.20;;;;;;;;;;4917650;29;20189;-72
2021/12/17 10:39:57;;;;;;;29.60;10.37;;;;;;;;;;4916840;29;20189;-72
2021/12/17 10:43:16;;;;;;;63.47;10.33;;;;;;;;;;4916972;29;20688;-72
2021/12/17 10:46:32;;;;;;;102.60;10.70;;;;;;;;;;4906172;29;20554;-72
2021/12/17 10:49:36;;;;;;;226.83;13.47;;;;;;;;;;4917661;29;20755;-72
2021/12/17 10:52:45;;;;;;;78.90;10.20;;;;;;;;;;4927424;29;20231;-72
2021/12/17 10:55:49;;;;;;;99.67;10.33;;;;;;;;;;4917628;29;20554;-72
2021/12/17 10:58:58;;;;;;;196.47;11.53;;;;;;;;;;4916392;29;20192;-72
2021/12/17 11:02:10;;;;;;;107.03;10.00;;;;;;;;;;4917326;29;20585;-72
2021/12/17 11:05:15;;;;;;;89.97;9.50;;;;;;;;;;4917284;29;20189;-72
2021/12/17 11:08:30;;;;;;;77.77;8.50;;;;;;;;;;4917122;29;20193;-71
2021/12/17 11:11:41;;;;;;;53.53;9.20;;;;;;;;;;4916365;29;20574;-72
2021/12/17 11:14:46;;;;;;;103.47;10.90;;;;;;;;;;4917338;29;20189;-72
2021/12/17 11:17:56;;;;;;;207.87;12.70;;;;;;;;;;4916786;29;20542;-72
2021/12/17 11:21:00;;;;;;;29.63;9.37;;;;;;;;;;4916233;29;20231;-72
2021/12/17 11:24:05;;;;;;;72.80;9.67;;;;;;;;;;4905488;29;20224;-73
2021/12/17 11:27:09;;;;;;;44.10;9.13;;;;;;;;;;4917136;29;20213;-73
2021/12/17 11:30:20;;;;;;;174.03;10.80;;;;;;;;;;4916102;29;20201;-72
2021/12/17 11:33:25;;;;;;;70.17;8.50;;;;;;;;;;4914915;29;20226;-71
2021/12/17 11:36:29;;;;;;;54.53;9.27;;;;;;;;;;4913593;29;20245;-71
2021/12/17 11:39:40;;;;;;;102.03;9.37;;;;;;;;;;4913523;29;20200;-71
2021/12/17 11:43:04;;;;;;;172.10;9.23;;;;;;;;;;4912720;29;20239;-71
2021/12/17 11:46:13;;;;;;;73.70;8.33;;;;;;;;;;4912336;29;20211;-71
2021/12/17 11:49:18;;;;;;;32.00;8.37;;;;;;;;;;4913537;29;20185;-71
2021/12/17 11:52:38;;;;;;;30.67;8.23;;;;;;;;;;4913349;29;20224;-71
2021/12/17 11:55:46;;;;;;;30.83;8.27;;;;;;;;;;4912823;29;20200;-71
2021/12/17 11:58:53;;;;;;;10.53;7.77;;;;;;;;;;4901334;29;20189;-71
2021/12/17 12:02:24;;;;;;;18.47;8.70;;;;;;;;;;4913178;29;20229;-71
2021/12/17 12:05:38;;;;;;;105.97;9.23;;;;;;;;;;4913410;29;20185;-71
2021/12/17 12:12:12;;;;;;;96.03;9.43;;;;;;;;;;4915060;29;20229;-72
2021/12/17 12:15:23;;;;;;;126.50;12.30;;;;;;;;;;4916939;29;20185;-72
2021/12/17 12:18:38;;;;;;;78.60;9.70;;;;;;;;;;4916955;29;20233;-72
2021/12/17 12:22:05;;;;;;;66.23;9.90;;;;;;;;;;4915508;29;20225;-71
2021/12/17 12:25:31;;;;;;;11.47;8.27;;;;;;;;;;4904962;29;20563;-71
2021/12/17 12:28:44;;;;;;;83.50;10.40;;;;;;;;;;4916839;29;20201;-71
2021/12/17 12:31:54;;;;;;;133.80;11.80;;;;;;;;;;4916403;29;20245;-72
2021/12/17 12:35:07;;;;;;;83.67;10.80;;;;;;;;;;4915277;29;20546;-73
2021/12/17 12:38:16;;;;;;;47.27;10.80;;;;;;;;;;4915605;29;20573;-72
2021/12/17 12:41:27;;;;;;;68.87;11.00;;;;;;;;;;4906828;29;20609;-72
2021/12/17 12:44:47;;;;;;;134.17;12.83;;;;;;;;;;4896644;29;20224;-72
2021/12/17 12:47:55;;;;;;;24.23;10.23;;;;;;;;;;4921151;29;20212;-73
2021/12/17 12:51:15;;;;;;;118.00;11.13;;;;;;;;;;4919042;29;20228;-73
2021/12/17 12:54:22;;;;;;;17.00;10.53;;;;;;;;;;4917710;29;20204;-73
2021/12/17 12:57:31;;;;;;;30.43;10.10;;;;;;;;;;4912674;29;20205;-73
2021/12/17 13:00:49;;;;;;;215.73;14.43;;;;;;;;;;4899392;29;20206;-74
2021/12/17 13:03:53;;;;;;;40.30;13.90;;;;;;;;;;4913234;29;20298;-73
2021/12/17 13:06:57;;;;;;;93.30;11.13;;;;;;;;;;4898543;29;20571;-71
2021/12/17 13:10:27;;;;;;;93.37;12.00;;;;;;;;;;4898421;29;20213;-72
2021/12/17 13:13:38;;;;;;;31.17;9.67;;;;;;;;;;4914448;29;20208;-71
2021/12/17 13:16:54;;;;;;;27.63;9.53;;;;;;;;;;4910263;29;20201;-71
2021/12/17 13:20:31;;;;;;;48.53;11.63;;;;;;;;;;4899070;29;20190;-72
2021/12/17 13:23:31;;;;;;;72.13;10.83;;;;;;;;;;4912641;29;20215;-71
2021/12/17 13:26:37;;;;;;;29.53;8.77;;;;;;;;;;4926699;29;20203;-71
2021/12/17 13:29:44;;;;;;;21.30;9.33;;;;;;;;;;4902362;29;20198;-71
2021/12/17 13:32:48;;;;;;;20.33;9.87;;;;;;;;;;4908910;29;20730;-71
2021/12/17 13:35:52;;;;;;;23.33;10.27;;;;;;;;;;4898915;29;20178;-72
2021/12/17 13:38:57;;;;;;;50.70;15.47;;;;;;;;;;4899561;29;20542;-71
2021/12/17 13:42:03;;;;;;;35.43;14.77;;;;;;;;;;4916701;29;20233;-71
2021/12/17 13:45:11;;;;;;;44.60;18.53;;;;;;;;;;4917809;29;20213;-72
2021/12/17 13:48:15;;;;;;;69.00;13.03;;;;;;;;;;4917067;29;20697;-71
2021/12/17 13:51:19;;;;;;;83.80;12.07;;;;;;;;;;4863124;29;1072624;-71
2021/12/17 13:54:23;;;;;;;19.93;10.77;;;;;;;;;;4918368;29;20208;-72
2021/12/17 13:57:30;;;;;;;24.50;9.57;;;;;;;;;;4916563;29;20205;-71
2021/12/17 14:00:40;;;;;;;23.30;11.20;;;;;;;;;;4928714;29;20184;-72
2021/12/17 14:03:45;;;;;;;25.80;12.67;;;;;;;;;;4913707;29;20214;-71
2021/12/17 14:06:53;;;;;;;20.60;10.83;;;;;;;;;;4910625;29;20211;-71
2021/12/17 14:10:00;;;;;;;18.97;11.17;;;;;;;;;;4918079;29;20212;-72
2021/12/17 14:13:15;;;;;;;31.80;12.53;;;;;;;;;;4918206;29;20191;-72
2021/12/17 14:16:30;;;;;;;25.53;12.43;;;;;;;;;;4908359;29;20205;-71
2021/12/17 14:19:41;;;;;;;25.03;12.33;;;;;;;;;;4910932;29;20209;-71
2021/12/17 14:22:51;;;;;;;46.10;17.27;;;;;;;;;;4927940;29;20735;-72
2021/12/17 14:25:57;;;;;;;35.80;13.20;;;;;;;;;;4911231;29;20225;-71
2021/12/17 14:29:09;;;;;;;24.43;11.37;;;;;;;;;;4901138;29;20204;-71
2021/12/17 14:32:18;;;;;;;18.00;10.70;;;;;;;;;;4917045;29;20220;-72
2021/12/17 14:35:50;;;;;;;24.80;13.30;;;;;;;;;;4917090;29;20189;-71
2021/12/17 14:39:07;;;;;;;41.97;12.37;;;;;;;;;;4925817;29;20219;-72
2021/12/17 14:42:27;;;;;;;80.63;23.20;;;;;;;;;;4898799;29;20240;-72
2021/12/17 14:45:35;;;;;;;138.67;30.27;;;;;;;;;;4909005;29;20220;-71
2021/12/17 14:48:57;;;;;;;28.07;15.60;;;;;;;;;;4899115;29;20714;-71
2021/12/17 15:05:29;;;;;;;106.17;15.23;;;;;;;;;;4898989;29;20228;-71
2021/12/17 15:08:33;;;;;;;215.40;26.07;;;;;;;;;;4913837;29;20211;-71
2021/12/17 15:11:41;;;;;;;117.47;16.03;;;;;;;;;;4926102;29;20227;-72
2021/12/17 15:14:46;;;;;;;126.33;14.50;;;;;;;;;;4916481;29;20538;-72
2021/12/17 15:17:52;;;;;;;210.40;16.63;;;;;;;;;;4903671;29;20196;-72
2021/12/17 15:20:57;;;;;;;165.80;23.47;;;;;;;;;;4916765;29;20239;-73
2021/12/17 15:24:01;;;;;;;168.40;17.10;;;;;;;;;;4926997;29;20228;-73
2021/12/17 15:27:07;;;;;;;58.60;15.07;;;;;;;;;;4912711;29;20199;-72
2021/12/17 15:30:15;;;;;;;133.97;16.10;;;;;;;;;;4919823;29;20271;-73
2021/12/17 15:33:19;;;;;;;26.43;13.77;;;;;;;;;;4905412;29;20209;-73
2021/12/17 15:36:24;;;;;;;49.10;13.83;;;;;;;;;;4898669;29;20200;-73
2021/12/17 15:39:28;;;;;;;41.73;14.10;;;;;;;;;;4899153;29;20193;-73
2021/12/17 15:42:32;;;;;;;67.23;18.13;;;;;;;;;;4903864;29;20247;-72
2021/12/17 15:45:39;;;;;;;79.33;15.33;;;;;;;;;;4919204;29;20235;-72
2021/12/17 15:48:45;;;;;;;29.07;13.83;;;;;;;;;;4903681;29;20208;-73
2021/12/17 16:18:43;;;;;;;30.90;16.83;;;;;;;;;;4954307;29;20204;-71
2021/12/17 16:21:48;;;;;;;29.30;13.73;;;;;;;;;;4943246;29;20234;-71
2021/12/17 16:24:52;;;;;;;28.47;14.37;;;;;;;;;;4940299;29;20234;-71
2021/12/17 16:27:56;;;;;;;27.80;15.93;;;;;;;;;;4940219;29;20200;-71
2021/12/17 16:31:11;;;;;;;31.83;15.30;;;;;;;;;;4938891;29;20234;-71
2021/12/17 16:34:15;;;;;;;29.63;14.67;;;;;;;;;;4937841;29;20222;-71
2021/12/17 16:37:21;;;;;;;26.93;15.23;;;;;;;;;;4938804;29;20199;-71
2021/12/17 16:40:25;;;;;;;24.60;14.00;;;;;;;;;;4944413;29;20204;-71
2021/12/17 16:43:30;;;;;;;28.30;14.57;;;;;;;;;;4954103;29;20202;-71
2021/12/17 16:49:44;;;;;;;52.63;22.63;;;;;;;;;;4945748;29;20557;-71
2021/12/17 16:52:48;;;;;;;29.47;16.60;;;;;;;;;;4953465;29;20233;-71
2021/12/17 16:55:53;;;;;;;31.07;17.43;;;;;;;;;;4952983;28;20198;-71
2021/12/17 16:58:57;;;;;;;27.03;17.40;;;;;;;;;;4953417;29;20909;-71
2021/12/17 17:02:02;;;;;;;27.53;14.87;;;;;;;;;;4941958;29;20312;-71
2021/12/17 17:05:07;;;;;;;25.40;16.27;;;;;;;;;;4953931;29;20995;-71
2021/12/17 17:08:12;;;;;;;25.43;16.17;;;;;;;;;;4941325;29;20190;-71
2021/12/17 17:11:17;;;;;;;25.20;15.67;;;;;;;;;;4953471;29;20249;-71
2021/12/17 17:14:21;;;;;;;31.00;19.67;;;;;;;;;;4953553;29;20602;-71
2021/12/17 17:17:25;;;;;;;26.67;15.20;;;;;;;;;;4953441;29;20206;-72
2021/12/17 17:20:30;;;;;;;31.67;17.70;;;;;;;;;;4953436;29;20598;-71
2021/12/17 17:23:38;;;;;;;32.00;20.87;;;;;;;;;;4945764;29;20634;-71
2021/12/17 17:26:42;;;;;;;34.77;16.97;;;;;;;;;;4945973;29;20247;-71
2021/12/17 17:29:48;;;;;;;31.83;17.87;;;;;;;;;;4948778;29;20204;-71
2021/12/17 17:32:52;;;;;;;26.10;15.40;;;;;;;;;;4934351;29;20658;-71
2021/12/17 17:35:56;;;;;;;28.53;16.80;;;;;;;;;;4933786;29;20557;-72
2021/12/17 17:39:03;;;;;;;30.87;17.33;;;;;;;;;;4922536;29;20199;-71
2021/12/17 17:42:07;;;;;;;29.13;16.03;;;;;;;;;;4938813;29;20653;-71
2021/12/17 17:45:11;;;;;;;31.37;17.80;;;;;;;;;;4953475;29;20572;-71
2021/12/17 17:48:16;;;;;;;29.30;18.97;;;;;;;;;;4952233;29;20764;-71
2021/12/17 17:51:20;;;;;;;26.27;18.00;;;;;;;;;;4953302;29;20843;-71
2021/12/17 17:54:24;;;;;;;29.13;18.30;;;;;;;;;;4953241;29;20570;-71
2021/12/17 17:57:29;;;;;;;26.23;17.07;;;;;;;;;;4953057;29;20635;-71
2021/12/17 18:00:33;;;;;;;27.33;18.53;;;;;;;;;;4940414;29;20723;-72
2021/12/17 18:03:38;;;;;;;29.77;19.87;;;;;;;;;;4951656;29;20257;-71
2021/12/17 18:06:42;;;;;;;28.27;19.40;;;;;;;;;;4940824;29;20222;-71
2021/12/17 18:09:46;;;;;;;31.17;19.93;;;;;;;;;;4952016;29;20613;-71
2021/12/17 18:12:55;;;;;;;27.70;17.87;;;;;;;;;;4940081;29;20665;-72
2021/12/17 18:16:02;;;;;;;28.20;18.17;;;;;;;;;;4940376;29;20611;-71
2021/12/17 18:19:06;;;;;;;21.87;15.50;;;;;;;;;;4951913;29;20200;-71
2021/12/17 18:22:10;;;;;;;23.73;15.17;;;;;;;;;;4933474;29;20231;-72
2021/12/17 18:25:15;;;;;;;25.20;16.40;;;;;;;;;;4950274;29;20598;-71
2021/12/17 18:28:19;;;;;;;27.23;16.93;;;;;;;;;;4940722;29;20857;-72
2021/12/17 18:31:25;;;;;;;19.67;13.70;;;;;;;;;;4952193;29;20259;-71
2021/12/17 18:34:30;;;;;;;18.27;12.73;;;;;;;;;;4933444;29;20525;-71
2021/12/17 18:37:34;;;;;;;18.00;13.00;;;;;;;;;;4937237;29;20214;-72
2021/12/17 18:40:45;;;;;;;18.80;12.63;;;;;;;;;;4952158;29;20215;-71
2021/12/17 18:47:12;;;;;;;20.47;11.87;;;;;;;;;;4932678;29;20220;-71
2021/12/17 18:50:16;;;;;;;22.63;13.90;;;;;;;;;;4939296;29;20594;-72
2021/12/17 18:53:20;;;;;;;20.20;13.33;;;;;;;;;;4933987;29;20580;-71
2021/12/17 18:56:26;;;;;;;16.23;11.93;;;;;;;;;;4952128;29;20584;-72
2021/12/17 18:59:30;;;;;;;17.10;12.10;;;;;;;;;;4951287;29;20609;-72
2021/12/17 19:02:34;;;;;;;21.47;14.50;;;;;;;;;;4951903;29;20238;-71
2021/12/17 19:05:39;;;;;;;18.47;13.40;;;;;;;;;;4951664;29;21245;-71
2021/12/17 19:08:45;;;;;;;26.73;18.27;;;;;;;;;;4951761;29;20599;-72
2021/12/17 19:11:49;;;;;;;17.10;12.73;;;;;;;;;;4951238;29;20677;-71
2021/12/17 19:14:53;;;;;;;19.07;12.83;;;;;;;;;;4940048;29;20635;-72
2021/12/17 19:17:57;;;;;;;17.60;12.43;;;;;;;;;;4951640;29;20616;-73
2021/12/17 19:21:05;;;;;;;18.67;12.37;;;;;;;;;;4928370;29;20657;-72
2021/12/17 19:24:11;;;;;;;19.20;13.70;;;;;;;;;;4951407;29;20924;-72
2021/12/17 19:27:16;;;;;;;20.90;13.50;;;;;;;;;;4950078;29;20219;-72
2021/12/17 19:30:20;;;;;;;24.33;14.97;;;;;;;;;;4951465;29;20582;-72
2021/12/17 19:33:24;;;;;;;19.37;13.77;;;;;;;;;;4951462;29;20646;-72
2021/12/17 19:36:29;;;;;;;19.57;13.63;;;;;;;;;;4951108;29;20632;-72
2021/12/17 19:39:35;;;;;;;18.40;12.97;;;;;;;;;;4948403;29;20596;-71
2021/12/17 19:42:40;;;;;;;19.47;13.33;;;;;;;;;;4951524;29;20231;-71
2021/12/17 19:45:45;;;;;;;20.67;14.00;;;;;;;;;;4928745;29;20222;-71
2021/12/17 19:49:09;;;;;;;26.00;17.03;;;;;;;;;;4950724;29;21177;-71
2021/12/17 19:52:16;;;;;;;24.53;16.07;;;;;;;;;;4951224;29;20699;-71
2021/12/17 19:55:20;;;;;;;24.90;15.93;;;;;;;;;;4951232;29;20606;-70
2021/12/17 19:58:25;;;;;;;21.20;14.37;;;;;;;;;;4951287;29;20606;-71
2021/12/17 20:01:30;;;;;;;26.07;15.10;;;;;;;;;;4939561;29;20638;-71
2021/12/17 20:04:38;;;;;;;25.93;15.60;;;;;;;;;;4939593;29;20198;-71
2021/12/17 20:07:42;;;;;;;24.97;15.50;;;;;;;;;;4950306;29;20650;-71
2021/12/17 20:10:47;;;;;;;29.73;19.77;;;;;;;;;;4950903;29;20211;-71
2021/12/17 20:13:53;;;;;;;25.40;16.43;;;;;;;;;;4951280;29;20572;-71
2021/12/17 20:16:58;;;;;;;33.57;18.83;;;;;;;;;;4950876;29;20642;-71
2021/12/17 20:20:07;;;;;;;25.17;16.03;;;;;;;;;;4930075;29;20630;-72
2021/12/17 20:23:13;;;;;;;24.30;16.17;;;;;;;;;;4950382;29;20598;-72
2021/12/17 20:26:19;;;;;;;25.20;15.37;;;;;;;;;;4951060;29;20662;-72
2021/12/17 20:29:23;;;;;;;26.47;16.97;;;;;;;;;;4928029;29;20214;-71
2021/12/17 20:32:27;;;;;;;24.33;15.83;;;;;;;;;;4953089;28;20645;-71
2021/12/17 20:35:32;;;;;;;26.03;16.30;;;;;;;;;;4954191;29;20570;-72
2021/12/17 20:38:37;;;;;;;24.90;16.53;;;;;;;;;;4954798;29;20603;-71
2021/12/17 20:41:45;;;;;;;25.70;16.73;;;;;;;;;;4954836;29;21217;-72
2021/12/17 20:44:51;;;;;;;25.53;16.03;;;;;;;;;;4954857;29;20589;-72
2021/12/17 20:47:57;;;;;;;25.63;16.27;;;;;;;;;;4954156;29;20646;-71
2021/12/17 20:51:03;;;;;;;26.67;16.37;;;;;;;;;;4942709;29;20678;-72
2021/12/17 20:54:08;;;;;;;28.97;16.83;;;;;;;;;;4942521;29;20565;-72
2021/12/17 20:57:12;;;;;;;26.03;17.57;;;;;;;;;;4942342;29;20971;-71
2021/12/17 21:00:27;;;;;;;27.00;17.03;;;;;;;;;;4912152;29;20571;-72
2021/12/17 21:03:31;;;;;;;26.83;16.60;;;;;;;;;;4923142;29;20583;-72
2021/12/17 21:06:35;;;;;;;26.47;16.60;;;;;;;;;;4934917;29;20623;-72
2021/12/17 21:09:40;;;;;;;28.33;17.30;;;;;;;;;;4953554;29;20665;-71
2021/12/17 21:12:45;;;;;;;26.20;16.40;;;;;;;;;;4941674;29;21233;-71
2021/12/17 21:15:51;;;;;;;24.97;15.90;;;;;;;;;;4942085;29;20617;-71
2021/12/17 21:18:55;;;;;;;26.67;17.07;;;;;;;;;;4953574;29;21205;-70
2021/12/17 21:22:00;;;;;;;28.53;18.07;;;;;;;;;;4953828;29;20633;-72
2021/12/17 21:25:05;;;;;;;31.70;18.77;;;;;;;;;;4953255;29;20610;-72
2021/12/17 21:28:09;;;;;;;35.50;20.23;;;;;;;;;;4941424;29;20648;-71
2021/12/17 21:31:13;;;;;;;31.83;19.33;;;;;;;;;;4941790;29;20998;-71
2021/12/17 21:34:18;;;;;;;35.57;20.33;;;;;;;;;;4953689;29;20570;-71
2021/12/17 21:37:22;;;;;;;32.90;20.10;;;;;;;;;;4952828;29;20947;-71
2021/12/17 21:40:31;;;;;;;33.57;20.23;;;;;;;;;;4952417;29;20606;-71
2021/12/17 21:43:37;;;;;;;35.70;20.47;;;;;;;;;;4953386;28;20932;-71
2021/12/17 21:46:40;;;;;;;31.57;20.37;;;;;;;;;;4952699;29;20644;-72
2021/12/17 21:49:45;;;;;;;32.17;20.43;;;;;;;;;;4941383;29;20566;-71
2021/12/17 21:52:49;;;;;;;33.23;21.10;;;;;;;;;;4953284;29;20649;-71
2021/12/17 21:55:53;;;;;;;34.43;20.53;;;;;;;;;;4941570;29;20574;-71